Time;durP1;ratioP1;P1;durP2;ratioP2;P2;SDS_P1;SDS_P2;PMS_P1;PMS_P2;Temp;Humidity;BMP_temperature;BMP_pressure;BME280_temperature;BME280_humidity;BME280_pressure;Samples;Min_cycle;Max_cycle;Signal;HPM_P1;HPM_P2
2023/09/23 00:01:09;;;;;;;1.6;0.3;;;;;;;;;;;;;
2023/09/23 00:03:36;;;;;;;0.3;0.3;;;;;;;;;;;;;
2023/09/23 00:06:00;;;;;;;0.3;0.3;;;;;;;;;;;;;
2023/09/23 00:08:25;;;;;;;0.6;0.3;;;;;;;;;;;;;
2023/09/23 00:10:51;;;;;;;0.5;0.3;;;;;;;;;;;;;
2023/09/23 00:13:20;;;;;;;1.4;0.4;;;;;;;;;;;;;
2023/09/23 00:15:43;;;;;;;0.4;0.4;;;;;;;;;;;;;
2023/09/23 00:18:07;;;;;;;2.6;0.4;;;;;;;;;;;;;
2023/09/23 00:20:33;;;;;;;1.5;0.4;;;;;;;;;;;;;
2023/09/23 00:23:01;;;;;;;0.6;0.5;;;;;;;;;;;;;
2023/09/23 00:25:25;;;;;;;0.7;0.4;;;;;;;;;;;;;
2023/09/23 00:27:50;;;;;;;0.3;0.3;;;;;;;;;;;;;
2023/09/23 00:30:17;;;;;;;0.7;0.4;;;;;;;;;;;;;
2023/09/23 00:32:41;;;;;;;0.5;0.3;;;;;;;;;;;;;
2023/09/23 00:35:06;;;;;;;0.9;0.3;;;;;;;;;;;;;
2023/09/23 00:37:31;;;;;;;0.6;0.5;;;;;;;;;;;;;
2023/09/23 00:39:56;;;;;;;0.5;0.5;;;;;;;;;;;;;
2023/09/23 00:42:22;;;;;;;0.6;0.5;;;;;;;;;;;;;
2023/09/23 00:44:47;;;;;;;0.7;0.5;;;;;;;;;;;;;
2023/09/23 00:47:13;;;;;;;0.4;0.4;;;;;;;;;;;;;
2023/09/23 00:49:38;;;;;;;0.9;0.6;;;;;;;;;;;;;
2023/09/23 00:52:05;;;;;;;0.5;0.5;;;;;;;;;;;;;
2023/09/23 00:54:28;;;;;;;0.4;0.3;;;;;;;;;;;;;
2023/09/23 00:56:54;;;;;;;0.6;0.5;;;;;;;;;;;;;
2023/09/23 00:59:18;;;;;;;1.6;0.5;;;;;;;;;;;;;
2023/09/23 01:01:48;;;;;;;1.6;0.7;;;;;;;;;;;;;
2023/09/23 01:04:13;;;;;;;1.3;0.8;;;;;;;;;;;;;
2023/09/23 01:06:35;;;;;;;1.5;0.5;;;;;;;;;;;;;
2023/09/23 01:09:00;;;;;;;0.8;0.5;;;;;;;;;;;;;
2023/09/23 01:11:26;;;;;;;0.5;0.5;;;;;;;;;;;;;
2023/09/23 01:13:54;;;;;;;1.1;0.5;;;;;;;;;;;;;
2023/09/23 01:16:16;;;;;;;0.8;0.7;;;;;;;;;;;;;
2023/09/23 01:18:41;;;;;;;0.5;0.4;;;;;;;;;;;;;
2023/09/23 01:21:07;;;;;;;0.3;0.3;;;;;;;;;;;;;
2023/09/23 01:23:31;;;;;;;0.5;0.4;;;;;;;;;;;;;
2023/09/23 01:25:57;;;;;;;0.7;0.3;;;;;;;;;;;;;
2023/09/23 01:28:22;;;;;;;1;0.3;;;;;;;;;;;;;
2023/09/23 01:30:47;;;;;;;0.5;0.3;;;;;;;;;;;;;
2023/09/23 01:33:12;;;;;;;0.4;0.4;;;;;;;;;;;;;
2023/09/23 01:35:37;;;;;;;0.5;0.5;;;;;;;;;;;;;
2023/09/23 01:38:04;;;;;;;0.4;0.3;;;;;;;;;;;;;
2023/09/23 01:40:29;;;;;;;0.3;0.3;;;;;;;;;;;;;
2023/09/23 01:42:53;;;;;;;0.3;0.3;;;;;;;;;;;;;
2023/09/23 01:45:19;;;;;;;0.3;0.3;;;;;;;;;;;;;
2023/09/23 01:47:44;;;;;;;0.5;0.3;;;;;;;;;;;;;
2023/09/23 01:50:09;;;;;;;0.2;0.2;;;;;;;;;;;;;
2023/09/23 01:52:33;;;;;;;0.5;0.3;;;;;;;;;;;;;
2023/09/23 01:54:59;;;;;;;0.5;0.4;;;;;;;;;;;;;
2023/09/23 01:57:23;;;;;;;0.4;0.4;;;;;;;;;;;;;
2023/09/23 01:59:48;;;;;;;0.2;0.2;;;;;;;;;;;;;
2023/09/23 02:02:17;;;;;;;0.5;0.4;;;;;;;;;;;;;
2023/09/23 02:04:42;;;;;;;0.8;0.4;;;;;;;;;;;;;
2023/09/23 02:07:04;;;;;;;0.7;0.5;;;;;;;;;;;;;
2023/09/23 02:09:30;;;;;;;1;0.5;;;;;;;;;;;;;
2023/09/23 02:11:55;;;;;;;0.6;0.3;;;;;;;;;;;;;
2023/09/23 02:14:19;;;;;;;0.4;0.4;;;;;;;;;;;;;
2023/09/23 02:16:47;;;;;;;0.6;0.5;;;;;;;;;;;;;
2023/09/23 02:19:11;;;;;;;1;0.5;;;;;;;;;;;;;
2023/09/23 02:21:35;;;;;;;0.2;0.2;;;;;;;;;;;;;
2023/09/23 02:24:00;;;;;;;0.7;0.4;;;;;;;;;;;;;
2023/09/23 02:26:27;;;;;;;0.5;0.5;;;;;;;;;;;;;
2023/09/23 02:28:50;;;;;;;1.6;0.3;;;;;;;;;;;;;
2023/09/23 02:31:16;;;;;;;0.3;0.3;;;;;;;;;;;;;
2023/09/23 02:33:43;;;;;;;0.3;0.3;;;;;;;;;;;;;
2023/09/23 02:36:08;;;;;;;0.5;0.4;;;;;;;;;;;;;
2023/09/23 02:38:32;;;;;;;0.4;0.4;;;;;;;;;;;;;
2023/09/23 02:40:57;;;;;;;1.4;0.5;;;;;;;;;;;;;
2023/09/23 02:43:22;;;;;;;1.1;0.5;;;;;;;;;;;;;
2023/09/23 02:45:50;;;;;;;0.8;0.8;;;;;;;;;;;;;
2023/09/23 02:48:14;;;;;;;0.5;0.4;;;;;;;;;;;;;
2023/09/23 02:50:39;;;;;;;1.2;0.6;;;;;;;;;;;;;
2023/09/23 02:53:04;;;;;;;0.6;0.4;;;;;;;;;;;;;
2023/09/23 02:55:29;;;;;;;0.6;0.5;;;;;;;;;;;;;
2023/09/23 02:57:55;;;;;;;0.7;0.7;;;;;;;;;;;;;
2023/09/23 03:00:23;;;;;;;1.5;0.4;;;;;;;;;;;;;
2023/09/23 03:02:46;;;;;;;0.5;0.4;;;;;;;;;;;;;
2023/09/23 03:05:13;;;;;;;1.2;0.5;;;;;;;;;;;;;
2023/09/23 03:07:39;;;;;;;0.4;0.4;;;;;;;;;;;;;
2023/09/23 03:10:03;;;;;;;0.6;0.6;;;;;;;;;;;;;
2023/09/23 03:12:29;;;;;;;0.7;0.5;;;;;;;;;;;;;
2023/09/23 03:14:53;;;;;;;0.4;0.4;;;;;;;;;;;;;
2023/09/23 03:17:21;;;;;;;0.9;0.3;;;;;;;;;;;;;
2023/09/23 03:19:47;;;;;;;0.3;0.3;;;;;;;;;;;;;
2023/09/23 03:22:10;;;;;;;0.4;0.4;;;;;;;;;;;;;
2023/09/23 03:24:37;;;;;;;0.4;0.4;;;;;;;;;;;;;
2023/09/23 03:27:02;;;;;;;0.3;0.3;;;;;;;;;;;;;
2023/09/23 03:29:30;;;;;;;0.3;0.3;;;;;;;;;;;;;
2023/09/23 03:31:53;;;;;;;0.5;0.4;;;;;;;;;;;;;
2023/09/23 03:34:21;;;;;;;0.8;0.5;;;;;;;;;;;;;
2023/09/23 03:36:46;;;;;;;0.4;0.4;;;;;;;;;;;;;
2023/09/23 03:39:12;;;;;;;0.8;0.7;;;;;;;;;;;;;
2023/09/23 03:41:38;;;;;;;1.5;0.4;;;;;;;;;;;;;
2023/09/23 03:44:03;;;;;;;0.4;0.4;;;;;;;;;;;;;
2023/09/23 03:46:29;;;;;;;0.8;0.4;;;;;;;;;;;;;
2023/09/23 03:48:54;;;;;;;0.7;0.4;;;;;;;;;;;;;
2023/09/23 03:51:20;;;;;;;1.9;0.4;;;;;;;;;;;;;
2023/09/23 03:53:48;;;;;;;0.3;0.3;;;;;;;;;;;;;
2023/09/23 03:56:11;;;;;;;0.4;0.4;;;;;;;;;;;;;
2023/09/23 03:58:38;;;;;;;0.3;0.3;;;;;;;;;;;;;
2023/09/23 04:02:37;;;;;;;0.7;0.6;;;;;;;11.27;100;934.6494;;;;
2023/09/23 04:05:01;;;;;;;0.8;0.6;;;;;;;11.26;100;934.7067;;;;
2023/09/23 04:07:33;;;;;;;1.2;0.5;;;;;;;11.36;100;934.6717;;;;
2023/09/23 04:09:58;;;;;;;0.3;0.3;;;;;;;11.45;99.98828;934.7957;;;;
2023/09/23 04:12:25;;;;;;;0.5;0.4;;;;;;;11.42;99.02148;934.845;;;;
2023/09/23 04:14:50;;;;;;;2.4;0.5;;;;;;;11.43;98.5332;934.8116;;;;
2023/09/23 04:17:16;;;;;;;0.6;0.5;;;;;;;11.43;99.50391;934.8491;;;;
2023/09/23 04:19:46;;;;;;;0.4;0.4;;;;;;;11.46;99.70508;934.8642;;;;
2023/09/23 04:22:12;;;;;;;0.8;0.4;;;;;;;11.42;99.00977;934.9048;;;;
2023/09/23 04:24:36;;;;;;;0.5;0.4;;;;;;;11.46;99.18945;934.8984;;;;
2023/09/23 04:27:10;;;;;;;0.3;0.3;;;;;;;11.51;99.22266;934.9391;;;;
2023/09/23 04:29:41;;;;;;;0.9;0.4;;;;;;;11.54;98.69336;934.9838;;;;
2023/09/23 04:32:11;;;;;;;0.4;0.4;;;;;;;11.5;98.39941;934.9734;;;;
2023/09/23 04:34:36;;;;;;;0.7;0.4;;;;;;;11.31;99.37207;935.0016;;;;
2023/09/23 04:36:59;;;;;;;0.7;0.4;;;;;;;11.28;99.83496;934.9849;;;;
2023/09/23 04:39:27;;;;;;;0.5;0.4;;;;;;;11.34;99.82813;935.0041;;;;
2023/09/23 04:41:52;;;;;;;0.3;0.3;;;;;;;11.37;98.94238;935.0168;;;;
2023/09/23 04:44:22;;;;;;;1.3;0.6;;;;;;;11.24;99.07324;935.0925;;;;
2023/09/23 04:46:52;;;;;;;0.6;0.5;;;;;;;11.11;99.63965;935.0943;;;;
2023/09/23 04:49:17;;;;;;;0.5;0.4;;;;;;;11.1;100;935.0967;;;;
2023/09/23 04:51:46;;;;;;;1.3;0.5;;;;;;;10.95;100;935.1262;;;;
2023/09/23 04:54:10;;;;;;;1.3;0.6;;;;;;;11.07;100;935.1133;;;;
2023/09/23 04:56:41;;;;;;;1.5;0.6;;;;;;;11.19;100;935.1837;;;;
2023/09/23 04:59:09;;;;;;;0.5;0.5;;;;;;;11.25;99.88574;935.1586;;;;
2023/09/23 05:01:34;;;;;;;1.8;0.5;;;;;;;11.33;100;935.1284;;;;
2023/09/23 05:04:08;;;;;;;0.8;0.6;;;;;;;11.41;99.56836;935.1269;;;;
2023/09/23 05:06:27;;;;;;;0.6;0.4;;;;;;;11.43;99.60645;935.1616;;;;
2023/09/23 05:08:58;;;;;;;1.4;0.6;;;;;;;11.47;99.4668;935.2484;;;;
2023/09/23 05:11:21;;;;;;;0.7;0.7;;;;;;;11.48;99.58496;935.282;;;;
2023/09/23 05:13:48;;;;;;;0.5;0.3;;;;;;;11.37;100;935.3342;;;;
2023/09/23 05:16:15;;;;;;;1.1;0.5;;;;;;;11.29;100;935.3778;;;;
2023/09/23 05:18:42;;;;;;;0.4;0.4;;;;;;;11.26;100;935.3945;;;;
2023/09/23 05:21:09;;;;;;;0.6;0.6;;;;;;;11.39;100;935.3828;;;;
2023/09/23 05:23:35;;;;;;;3.3;0.9;;;;;;;11.38;100;935.382;;;;
2023/09/23 05:25:59;;;;;;;0.6;0.5;;;;;;;11.39;100;935.4338;;;;
2023/09/23 05:28:29;;;;;;;0.6;0.4;;;;;;;11.47;100;935.4765;;;;
2023/09/23 05:30:54;;;;;;;2;0.5;;;;;;;11.54;100;935.5268;;;;
2023/09/23 05:33:21;;;;;;;0.8;0.7;;;;;;;11.6;99.60059;935.5261;;;;
2023/09/23 05:35:46;;;;;;;0.7;0.5;;;;;;;11.66;99.35156;935.6261;;;;
2023/09/23 05:38:13;;;;;;;0.9;0.6;;;;;;;11.7;99.58887;935.6971;;;;
2023/09/23 05:40:39;;;;;;;0.6;0.4;;;;;;;11.67;99.81152;935.7051;;;;
2023/09/23 05:43:06;;;;;;;0.8;0.6;;;;;;;11.7;98.9502;935.7106;;;;
2023/09/23 05:45:31;;;;;;;0.4;0.4;;;;;;;11.77;98.85938;935.7275;;;;
2023/09/23 05:48:00;;;;;;;1.4;1;;;;;;;11.81;99.39648;935.7836;;;;
2023/09/23 05:50:25;;;;;;;1.3;0.6;;;;;;;11.78;99.95117;935.8375;;;;
2023/09/23 05:52:52;;;;;;;0.3;0.3;;;;;;;11.73;100;935.867;;;;
2023/09/23 05:55:17;;;;;;;0.5;0.5;;;;;;;11.59;99.74707;935.9088;;;;
2023/09/23 05:57:46;;;;;;;1;0.7;;;;;;;11.64;99.61133;935.8758;;;;
2023/09/23 06:00:17;;;;;;;0.5;0.5;;;;;;;11.64;98.4209;935.985;;;;
2023/09/23 06:02:41;;;;;;;1.2;0.5;;;;;;;11.68;98.39453;936.0009;;;;
2023/09/23 06:05:09;;;;;;;0.6;0.5;;;;;;;11.73;98.49805;936.0712;;;;
2023/09/23 06:07:34;;;;;;;0.5;0.3;;;;;;;11.7;98.33008;936.1119;;;;
2023/09/23 06:10:03;;;;;;;0.5;0.5;;;;;;;11.68;98.90918;936.1541;;;;
2023/09/23 06:12:27;;;;;;;0.5;0.5;;;;;;;11.56;98.91504;936.1934;;;;
2023/09/23 06:14:54;;;;;;;0.6;0.6;;;;;;;11.68;99.55078;936.261;;;;
2023/09/23 06:17:19;;;;;;;0.3;0.3;;;;;;;11.67;98.58887;936.3064;;;;
2023/09/23 06:19:49;;;;;;;0.5;0.5;;;;;;;11.8;98.7666;936.3692;;;;
2023/09/23 06:22:19;;;;;;;0.3;0.3;;;;;;;11.92;98.89453;936.3577;;;;
2023/09/23 06:24:44;;;;;;;1.4;0.6;;;;;;;11.9;98.18164;936.317;;;;
2023/09/23 06:27:11;;;;;;;0.4;0.4;;;;;;;11.95;98.51465;936.3713;;;;
2023/09/23 06:29:36;;;;;;;0.5;0.5;;;;;;;11.94;98.53418;936.3951;;;;
2023/09/23 06:32:03;;;;;;;0.6;0.4;;;;;;;11.78;100;936.4749;;;;
2023/09/23 06:34:28;;;;;;;1.1;0.4;;;;;;;11.85;100;936.4238;;;;
2023/09/23 06:36:54;;;;;;;0.5;0.4;;;;;;;11.95;100;936.5045;;;;
2023/09/23 06:39:23;;;;;;;0.7;0.6;;;;;;;11.95;98.7998;936.5005;;;;
2023/09/23 06:41:44;;;;;;;0.5;0.4;;;;;;;12.12;97.71387;936.5344;;;;
2023/09/23 06:44:11;;;;;;;0.8;0.5;;;;;;;12.22;95.9248;936.5292;;;;
2023/09/23 06:46:36;;;;;;;0.5;0.3;;;;;;;12.16;94.42285;936.5728;;;;
2023/09/23 06:49:04;;;;;;;0.4;0.4;;;;;;;12.07;95.9043;936.6278;;;;
2023/09/23 06:51:30;;;;;;;0.6;0.5;;;;;;;12.2;96.71387;936.6383;;;;
2023/09/23 06:53:56;;;;;;;0.7;0.6;;;;;;;12.36;95.44238;936.704;;;;
2023/09/23 06:56:21;;;;;;;0.4;0.4;;;;;;;12.45;93.92383;936.7339;;;;
2023/09/23 06:58:48;;;;;;;0.5;0.5;;;;;;;12.42;93.50488;936.793;;;;
2023/09/23 07:01:12;;;;;;;0.7;0.5;;;;;;;12.48;94.12695;936.8625;;;;
2023/09/23 07:03:39;;;;;;;0.8;0.7;;;;;;;12.51;94.39648;936.8696;;;;
2023/09/23 07:06:05;;;;;;;0.5;0.5;;;;;;;12.57;93.62793;936.9462;;;;
2023/09/23 07:08:33;;;;;;;0.5;0.5;;;;;;;12.61;92.67383;936.9686;;;;
2023/09/23 07:10:59;;;;;;;1.1;0.6;;;;;;;12.71;93.64746;937.0272;;;;
2023/09/23 07:13:25;;;;;;;0.9;0.5;;;;;;;12.76;93.76074;937.119;;;;
2023/09/23 07:15:50;;;;;;;0.5;0.4;;;;;;;12.77;93.64941;937.1589;;;;
2023/09/23 07:18:17;;;;;;;0.8;0.6;;;;;;;12.61;93.99316;937.2434;;;;
2023/09/23 07:20:42;;;;;;;0.8;0.6;;;;;;;12.44;95.63086;937.2258;;;;
2023/09/23 07:23:09;;;;;;;0.9;0.8;;;;;;;12.52;95.17871;937.3049;;;;
2023/09/23 07:25:34;;;;;;;15.2;7.1;;;;;;;12.6;94.9873;937.3041;;;;
2023/09/23 07:28:01;;;;;;;1.2;1;;;;;;;12.46;94.46484;937.3808;;;;
2023/09/23 07:30:26;;;;;;;18.2;7;;;;;;;12.4;95.24414;937.3972;;;;
2023/09/23 07:32:53;;;;;;;1.3;0.7;;;;;;;12.44;94.73633;937.336;;;;
2023/09/23 07:35:19;;;;;;;1;0.6;;;;;;;12.41;95.24609;937.4116;;;;
2023/09/23 07:37:47;;;;;;;1.2;0.7;;;;;;;12.4;95.86328;937.3851;;;;
2023/09/23 07:40:12;;;;;;;8.8;6.2;;;;;;;12.52;96.16504;937.4727;;;;
2023/09/23 07:42:40;;;;;;;3.3;1.1;;;;;;;12.5;95.73633;937.4942;;;;
2023/09/23 07:45:05;;;;;;;5.3;1.8;;;;;;;12.48;96.50098;937.507;;;;
2023/09/23 07:47:32;;;;;;;2.4;0.6;;;;;;;12.51;95.81836;937.5062;;;;
2023/09/23 07:49:58;;;;;;;0.8;0.5;;;;;;;12.52;94.01953;937.562;;;;
2023/09/23 07:52:24;;;;;;;0.5;0.5;;;;;;;12.48;94.16113;937.5916;;;;
2023/09/23 07:54:49;;;;;;;1;0.6;;;;;;;12.56;94.4082;937.6252;;;;
2023/09/23 07:57:17;;;;;;;1.5;0.5;;;;;;;12.71;93.97852;937.6375;;;;
2023/09/23 07:59:42;;;;;;;1.1;0.7;;;;;;;12.8;92.81738;937.7342;;;;
2023/09/23 08:02:08;;;;;;;0.9;0.7;;;;;;;12.68;92.50391;937.7094;;;;
2023/09/23 08:04:33;;;;;;;1.7;0.7;;;;;;;12.73;93.00879;937.7031;;;;
2023/09/23 08:06:59;;;;;;;1;0.5;;;;;;;12.55;93.93359;937.8369;;;;
2023/09/23 08:09:24;;;;;;;0.4;0.4;;;;;;;12.59;95.32031;937.9096;;;;
2023/09/23 08:11:51;;;;;;;0.6;0.5;;;;;;;12.58;94.60547;937.9128;;;;
2023/09/23 08:14:16;;;;;;;1.1;0.8;;;;;;;12.64;93.02441;937.918;;;;
2023/09/23 08:16:41;;;;;;;0.6;0.6;;;;;;;12.53;93.78125;937.872;;;;
2023/09/23 08:19:08;;;;;;;0.5;0.5;;;;;;;12.35;94.16602;937.9561;;;;
2023/09/23 08:21:34;;;;;;;0.5;0.5;;;;;;;12.65;94.51758;938.0426;;;;
2023/09/23 08:24:00;;;;;;;0.7;0.7;;;;;;;12.88;92.11035;938.1093;;;;
2023/09/23 08:26:25;;;;;;;0.6;0.6;;;;;;;13.1;88.94238;938.1616;;;;
2023/09/23 08:28:52;;;;;;;0.6;0.6;;;;;;;13.2;88.70996;938.1786;;;;
2023/09/23 08:31:18;;;;;;;0.5;0.5;;;;;;;13.3;89.00586;938.1875;;;;
2023/09/23 08:33:51;;;;;;;1.5;0.9;;;;;;;13.33;91.31152;938.2451;;;;
2023/09/23 08:36:14;;;;;;;4;2.1;;;;;;;13.34;90.08203;938.2722;;;;
2023/09/23 08:38:39;;;;;;;1.5;1.1;;;;;;;13.23;88.36035;938.3036;;;;
2023/09/23 08:41:04;;;;;;;1.8;1.4;;;;;;;13.34;90.54102;938.3691;;;;
2023/09/23 08:43:36;;;;;;;1.8;1.5;;;;;;;13.25;89.97266;938.3091;;;;
2023/09/23 08:45:54;;;;;;;0.7;0.7;;;;;;;13.34;89.38281;938.3801;;;;
2023/09/23 08:48:20;;;;;;;1.5;0.8;;;;;;;13.39;89.89746;938.3898;;;;
2023/09/23 08:50:46;;;;;;;1.3;0.7;;;;;;;13.29;90.46289;938.4227;;;;
2023/09/23 08:53:11;;;;;;;0.5;0.5;;;;;;;13.2;92.37598;938.4736;;;;
2023/09/23 08:55:35;;;;;;;1.5;0.6;;;;;;;13.37;91.53711;938.5002;;;;
2023/09/23 08:58:02;;;;;;;0.9;0.5;;;;;;;13.55;90.9082;938.4498;;;;
2023/09/23 09:00:30;;;;;;;1.1;0.7;;;;;;;13.39;93.41406;938.4625;;;;
2023/09/23 09:02:51;;;;;;;0.7;0.7;;;;;;;13.49;92.34375;938.4163;;;;
2023/09/23 09:05:20;;;;;;;1;0.7;;;;;;;13.79;91.35059;938.4551;;;;
2023/09/23 09:07:44;;;;;;;1.6;1.4;;;;;;;13.69;90.36328;938.4586;;;;
2023/09/23 09:10:09;;;;;;;2.2;1.2;;;;;;;13.77;89.69043;938.46;;;;
2023/09/23 09:12:34;;;;;;;1.6;1.3;;;;;;;13.44;90.97754;938.4348;;;;
2023/09/23 09:15:00;;;;;;;1.5;0.8;;;;;;;13.67;91.32617;938.4755;;;;
2023/09/23 09:17:24;;;;;;;1.7;1.1;;;;;;;13.82;87.51367;938.489;;;;
2023/09/23 09:19:50;;;;;;;1.8;1.1;;;;;;;13.79;88.64551;938.3951;;;;
2023/09/23 09:22:24;;;;;;;1;0.8;;;;;;;13.86;87.25781;938.4992;;;;
2023/09/23 09:24:50;;;;;;;1.3;0.6;;;;;;;13.68;85.78418;938.517;;;;
2023/09/23 09:27:16;;;;;;;1.3;0.9;;;;;;;13.73;87.10449;938.5706;;;;
2023/09/23 09:29:43;;;;;;;0.9;0.6;;;;;;;13.79;85.86328;938.5768;;;;
2023/09/23 09:32:08;;;;;;;1.2;0.7;;;;;;;13.68;87.08203;938.5867;;;;
2023/09/23 09:34:36;;;;;;;2;1.2;;;;;;;13.7;88.31836;938.6586;;;;
2023/09/23 09:37:00;;;;;;;2.6;1.3;;;;;;;13.72;89.03516;938.6106;;;;
2023/09/23 09:39:26;;;;;;;1.5;1.4;;;;;;;13.64;89.23633;938.662;;;;
2023/09/23 09:41:51;;;;;;;1;0.9;;;;;;;13.67;88.88574;938.6443;;;;
2023/09/23 09:44:20;;;;;;;2.2;1;;;;;;;13.85;87.85254;938.6746;;;;
2023/09/23 09:46:41;;;;;;;0.8;0.8;;;;;;;13.63;88.42969;938.6523;;;;
2023/09/23 09:49:08;;;;;;;0.7;0.7;;;;;;;13.59;89.55957;938.7025;;;;
2023/09/23 09:51:35;;;;;;;2.3;2.1;;;;;;;13.47;91.64063;938.7035;;;;
2023/09/23 09:53:58;;;;;;;0.5;0.5;;;;;;;13.32;90.76953;938.7209;;;;
2023/09/23 09:56:25;;;;;;;0.6;0.6;;;;;;;13.27;90.4248;938.6609;;;;
2023/09/23 09:58:50;;;;;;;1.8;0.8;;;;;;;13.1;94.00684;938.7683;;;;
2023/09/23 10:01:17;;;;;;;0.8;0.8;;;;;;;13.14;93.70508;938.7139;;;;
2023/09/23 10:03:42;;;;;;;2.1;2;;;;;;;13.4;93.01563;938.7416;;;;
2023/09/23 10:06:07;;;;;;;1.6;1.5;;;;;;;13.68;91.61328;938.6851;;;;
2023/09/23 10:08:35;;;;;;;1.4;0.9;;;;;;;13.68;90.13184;938.7003;;;;
2023/09/23 10:11:02;;;;;;;0.5;0.4;;;;;;;13.9;88.74805;938.7417;;;;
2023/09/23 10:13:25;;;;;;;0.9;0.7;;;;;;;14.04;86.1416;938.7321;;;;
2023/09/23 10:15:50;;;;;;;1.5;1.1;;;;;;;14.22;87.28223;938.7477;;;;
2023/09/23 10:18:15;;;;;;;1.2;1.1;;;;;;;14.34;87.62988;938.7272;;;;
2023/09/23 10:20:44;;;;;;;0.8;0.6;;;;;;;14.39;87.0498;938.6597;;;;
2023/09/23 10:23:10;;;;;;;1.6;0.5;;;;;;;14.59;83.66895;938.588;;;;
2023/09/23 10:25:36;;;;;;;0.9;0.6;;;;;;;14.55;82.42871;938.5977;;;;
2023/09/23 10:28:02;;;;;;;0.7;0.7;;;;;;;14.86;83.4209;938.5941;;;;
2023/09/23 10:30:28;;;;;;;0.3;0.3;;;;;;;15.07;81.94922;938.6923;;;;
2023/09/23 10:32:54;;;;;;;0.4;0.4;;;;;;;15.26;79.13379;938.7274;;;;
2023/09/23 10:35:19;;;;;;;0.5;0.4;;;;;;;15.13;79.38965;938.7112;;;;
2023/09/23 10:37:45;;;;;;;0.9;0.5;;;;;;;15.31;78.11621;938.7245;;;;
2023/09/23 10:40:12;;;;;;;1.3;0.6;;;;;;;15.37;78.78516;938.7745;;;;
2023/09/23 10:42:37;;;;;;;1;0.6;;;;;;;15.39;79.71191;938.7415;;;;
2023/09/23 10:45:03;;;;;;;0.6;0.6;;;;;;;15.4;80.64941;938.7302;;;;
2023/09/23 10:47:29;;;;;;;0.8;0.5;;;;;;;15.56;78.11523;938.6833;;;;
2023/09/23 10:49:54;;;;;;;0.6;0.5;;;;;;;15.57;76.60352;938.7113;;;;
2023/09/23 10:52:20;;;;;;;1.2;0.6;;;;;;;15.72;74.93164;938.6976;;;;
2023/09/23 10:54:45;;;;;;;0.4;0.4;;;;;;;15.94;73.80176;938.6418;;;;
2023/09/23 10:57:11;;;;;;;2;0.4;;;;;;;16.17;71.66309;938.692;;;;
2023/09/23 10:59:36;;;;;;;0.6;0.5;;;;;;;16.22;71.5;938.7374;;;;
2023/09/23 11:02:03;;;;;;;0.6;0.3;;;;;;;15.95;76.34766;938.7253;;;;
2023/09/23 11:04:26;;;;;;;1.2;0.4;;;;;;;15.93;74.94434;938.7216;;;;
2023/09/23 11:06:55;;;;;;;1.4;0.7;;;;;;;15.79;75.09277;938.7075;;;;
2023/09/23 11:09:21;;;;;;;0.8;0.6;;;;;;;15.69;77.24805;938.7076;;;;
2023/09/23 11:11:46;;;;;;;0.5;0.4;;;;;;;15.7;76.42969;938.7485;;;;
2023/09/23 11:14:11;;;;;;;1.1;0.5;;;;;;;15.71;76.51172;938.7395;;;;
2023/09/23 11:16:38;;;;;;;0.8;0.4;;;;;;;16.15;72.58691;938.7459;;;;
2023/09/23 11:19:05;;;;;;;1.3;0.8;;;;;;;16.06;72.67676;938.7703;;;;
2023/09/23 11:21:29;;;;;;;0.6;0.4;;;;;;;15.96;74.9375;938.7454;;;;
2023/09/23 11:23:54;;;;;;;0.9;0.4;;;;;;;15.95;73.09766;938.7488;;;;
2023/09/23 11:26:19;;;;;;;0.7;0.5;;;;;;;15.79;74.71191;938.803;;;;
2023/09/23 11:28:45;;;;;;;0.9;0.5;;;;;;;15.34;74.70508;938.8317;;;;
2023/09/23 11:31:10;;;;;;;2;0.6;;;;;;;15;74.05664;938.796;;;;
2023/09/23 11:33:36;;;;;;;0.5;0.5;;;;;;;14.8;76.52637;938.7433;;;;
2023/09/23 11:36:01;;;;;;;0.7;0.6;;;;;;;14.67;82.19922;938.8089;;;;
2023/09/23 11:38:27;;;;;;;0.4;0.4;;;;;;;14.93;80.48047;938.7541;;;;
2023/09/23 11:40:52;;;;;;;0.7;0.4;;;;;;;14.95;77.56738;938.7964;;;;
2023/09/23 11:43:17;;;;;;;0.8;0.5;;;;;;;15.17;76.30273;938.8408;;;;
2023/09/23 11:45:43;;;;;;;0.4;0.4;;;;;;;15.32;73.96191;938.7975;;;;
2023/09/23 11:48:11;;;;;;;0.6;0.5;;;;;;;15.6;72.80762;938.7972;;;;
2023/09/23 11:50:36;;;;;;;1;0.4;;;;;;;15.56;74.42871;938.7733;;;;
2023/09/23 11:53:01;;;;;;;2.3;0.6;;;;;;;15.66;73.8584;938.7761;;;;
2023/09/23 11:55:27;;;;;;;1.5;0.8;;;;;;;15.68;73.43359;938.7776;;;;
2023/09/23 11:57:53;;;;;;;0.8;0.6;;;;;;;15.66;73.19922;938.7881;;;;
2023/09/23 12:00:20;;;;;;;0.6;0.6;;;;;;;15.6;73.14258;938.7989;;;;
2023/09/23 12:02:47;;;;;;;1;0.6;;;;;;;15.68;71.67773;938.8322;;;;
2023/09/23 12:05:11;;;;;;;0.6;0.6;;;;;;;15.87;73.51074;938.8539;;;;
2023/09/23 12:07:37;;;;;;;0.9;0.7;;;;;;;15.52;74.06445;938.8329;;;;
2023/09/23 12:10:03;;;;;;;0.6;0.6;;;;;;;14.92;77.12207;938.8856;;;;
2023/09/23 12:12:27;;;;;;;1;0.6;;;;;;;14.59;78.72461;938.9397;;;;
2023/09/23 12:14:56;;;;;;;1.2;0.7;;;;;;;14.52;78.13672;938.9858;;;;
2023/09/23 12:17:22;;;;;;;1.3;0.7;;;;;;;14.95;79.03223;938.915;;;;
2023/09/23 12:19:48;;;;;;;0.5;0.5;;;;;;;15.14;75.62793;938.943;;;;
2023/09/23 12:22:15;;;;;;;1.4;0.7;;;;;;;15.34;74.51855;938.9377;;;;
2023/09/23 12:24:40;;;;;;;1.7;0.9;;;;;;;15.46;75.83203;938.9194;;;;
2023/09/23 12:27:07;;;;;;;1.8;1;;;;;;;15.72;72.67871;938.9113;;;;
2023/09/23 12:29:30;;;;;;;1.1;0.8;;;;;;;16.08;72.96973;938.9637;;;;
2023/09/23 12:31:56;;;;;;;1.4;0.6;;;;;;;16.09;69.31738;938.8936;;;;
2023/09/23 12:34:21;;;;;;;1;0.7;;;;;;;16.29;71.52246;938.8765;;;;
2023/09/23 12:36:49;;;;;;;0.5;0.4;;;;;;;16.6;69.62891;938.8544;;;;
2023/09/23 12:39:15;;;;;;;0.5;0.5;;;;;;;16.92;67.65137;938.8488;;;;
2023/09/23 12:41:40;;;;;;;0.7;0.7;;;;;;;16.96;66.10449;938.8594;;;;
2023/09/23 12:44:05;;;;;;;1.2;0.7;;;;;;;16.75;67.70605;938.9037;;;;
2023/09/23 12:46:32;;;;;;;0.7;0.6;;;;;;;17.11;68.97852;938.9017;;;;
2023/09/23 12:48:57;;;;;;;1.2;0.7;;;;;;;16.15;68.00586;938.9832;;;;
2023/09/23 12:51:24;;;;;;;0.8;0.7;;;;;;;16.49;72.53809;938.9476;;;;
2023/09/23 12:53:49;;;;;;;0.7;0.7;;;;;;;16.82;68.4248;938.9241;;;;
2023/09/23 12:56:16;;;;;;;0.7;0.6;;;;;;;17.14;67.37207;938.9472;;;;
2023/09/23 12:58:39;;;;;;;0.8;0.7;;;;;;;17.14;67.91797;938.9761;;;;
2023/09/23 13:01:07;;;;;;;1.3;0.9;;;;;;;17;67.35059;938.9778;;;;
2023/09/23 13:03:32;;;;;;;0.6;0.6;;;;;;;17.28;68.19434;938.9945;;;;
2023/09/23 13:05:57;;;;;;;1.6;0.9;;;;;;;17.64;64.79199;938.9169;;;;
2023/09/23 13:08:23;;;;;;;0.6;0.5;;;;;;;17.76;67.43359;938.9369;;;;
2023/09/23 13:10:51;;;;;;;0.8;0.8;;;;;;;17.83;65.24902;938.9642;;;;
2023/09/23 13:13:16;;;;;;;2.5;0.6;;;;;;;17.52;63.70703;938.9048;;;;
2023/09/23 13:15:40;;;;;;;0.7;0.6;;;;;;;17.23;66.91113;938.9623;;;;
2023/09/23 13:18:06;;;;;;;1;0.9;;;;;;;17.17;68.80469;938.9838;;;;
2023/09/23 13:20:31;;;;;;;1.1;0.9;;;;;;;16.82;65.53906;938.9617;;;;
2023/09/23 13:22:56;;;;;;;1.2;0.9;;;;;;;16.33;68.67188;938.9966;;;;
2023/09/23 13:25:21;;;;;;;0.9;0.6;;;;;;;16.61;69.51465;939.0538;;;;
2023/09/23 13:27:47;;;;;;;1.6;0.8;;;;;;;16.84;67.37402;939.0637;;;;
2023/09/23 13:30:12;;;;;;;1;0.8;;;;;;;16.92;65.64648;939.103;;;;
2023/09/23 13:32:39;;;;;;;1;0.7;;;;;;;17.14;66.83887;939.0873;;;;
2023/09/23 13:35:04;;;;;;;2.4;0.6;;;;;;;17.15;66.94531;939.0589;;;;
2023/09/23 13:37:32;;;;;;;1.4;0.8;;;;;;;17.05;64.21875;939.0676;;;;
2023/09/23 13:39:58;;;;;;;1.6;0.8;;;;;;;16.88;66.98535;939.0383;;;;
2023/09/23 13:42:23;;;;;;;3.4;1;;;;;;;16.99;68.75293;938.99;;;;
2023/09/23 13:44:50;;;;;;;0.7;0.7;;;;;;;16.46;69.91797;939.0918;;;;
2023/09/23 13:47:13;;;;;;;1.9;0.8;;;;;;;16.34;69.55273;939.1418;;;;
2023/09/23 13:49:38;;;;;;;0.8;0.6;;;;;;;16.13;69.32324;939.1174;;;;
2023/09/23 13:52:03;;;;;;;0.7;0.7;;;;;;;16.07;69.09277;939.0859;;;;
2023/09/23 13:54:28;;;;;;;1.5;0.7;;;;;;;16.06;71.0459;939.0931;;;;
2023/09/23 13:56:53;;;;;;;1.2;0.8;;;;;;;15.94;68.88672;939.0307;;;;
2023/09/23 13:59:19;;;;;;;1.8;0.8;;;;;;;15.97;68.58203;939.0769;;;;
2023/09/23 14:01:45;;;;;;;0.9;0.6;;;;;;;15.96;70.30176;939.155;;;;
2023/09/23 14:04:11;;;;;;;0.5;0.5;;;;;;;15.87;72.49512;939.1205;;;;
2023/09/23 14:06:37;;;;;;;0.8;0.6;;;;;;;15.96;74.625;939.1791;;;;
2023/09/23 14:09:03;;;;;;;0.9;0.7;;;;;;;16;73.67188;939.1859;;;;
2023/09/23 14:11:30;;;;;;;0.8;0.8;;;;;;;15.81;71.21484;939.1769;;;;
2023/09/23 14:13:56;;;;;;;1.5;0.9;;;;;;;16.04;72.12988;939.2123;;;;
2023/09/23 14:16:21;;;;;;;2.6;0.6;;;;;;;16.04;71.52734;939.1931;;;;
2023/09/23 14:18:46;;;;;;;1.4;0.7;;;;;;;15.95;71.81445;939.1495;;;;
2023/09/23 14:21:11;;;;;;;3;0.7;;;;;;;16.08;72.87793;939.2054;;;;
2023/09/23 14:23:37;;;;;;;1.9;0.8;;;;;;;15.99;72.38672;939.28;;;;
2023/09/23 14:26:02;;;;;;;0.8;0.6;;;;;;;16.3;73.53711;939.2292;;;;
2023/09/23 14:28:28;;;;;;;1.4;0.7;;;;;;;16.28;73.70703;939.3603;;;;
2023/09/23 14:30:52;;;;;;;1.3;0.7;;;;;;;16.24;71.9082;939.3359;;;;
2023/09/23 14:33:17;;;;;;;1.7;0.9;;;;;;;15.9;70.10742;939.3547;;;;
2023/09/23 14:35:42;;;;;;;0.7;0.5;;;;;;;16.13;72.79395;939.3994;;;;
2023/09/23 14:38:09;;;;;;;0.7;0.5;;;;;;;16.31;71.6543;939.3351;;;;
2023/09/23 14:40:37;;;;;;;0.7;0.6;;;;;;;16.35;67.77148;939.3829;;;;
2023/09/23 14:43:02;;;;;;;1.5;0.6;;;;;;;16.49;68.04883;939.4299;;;;
2023/09/23 14:45:26;;;;;;;1.2;0.8;;;;;;;16.3;68.16797;939.4213;;;;
2023/09/23 14:47:50;;;;;;;1.3;0.8;;;;;;;16.32;68.49512;939.4548;;;;
2023/09/23 14:50:16;;;;;;;2.1;0.6;;;;;;;16.36;73.81348;939.5556;;;;
2023/09/23 14:52:42;;;;;;;1;0.8;;;;;;;16.1;77.1582;939.5885;;;;
2023/09/23 14:55:12;;;;;;;1;0.9;;;;;;;16.04;78.73047;939.5505;;;;
2023/09/23 14:57:40;;;;;;;1;0.6;;;;;;;15.94;77.92871;939.5984;;;;
2023/09/23 15:00:05;;;;;;;1.1;0.7;;;;;;;15.66;78.47949;939.6135;;;;
2023/09/23 15:02:30;;;;;;;0.7;0.7;;;;;;;15.83;79.11133;939.6453;;;;
2023/09/23 15:04:55;;;;;;;1.6;1;;;;;;;15.94;78.8877;939.6531;;;;
2023/09/23 15:07:21;;;;;;;1.2;1;;;;;;;15.87;79.77637;939.6602;;;;
2023/09/23 15:09:46;;;;;;;0.8;0.7;;;;;;;15.97;78.47852;939.615;;;;
2023/09/23 15:12:11;;;;;;;0.8;0.8;;;;;;;16.03;78.51074;939.6164;;;;
2023/09/23 15:14:37;;;;;;;0.7;0.7;;;;;;;15.97;76.53418;939.6818;;;;
2023/09/23 15:17:02;;;;;;;1.2;0.6;;;;;;;15.89;78.77441;939.7371;;;;
2023/09/23 15:19:28;;;;;;;2.1;0.7;;;;;;;15.78;74.22461;939.7738;;;;
2023/09/23 15:21:54;;;;;;;1.4;1.1;;;;;;;15.65;73.52148;939.7155;;;;
2023/09/23 15:24:18;;;;;;;1.6;1;;;;;;;15.72;74.15625;939.7101;;;;
2023/09/23 15:26:44;;;;;;;1.5;0.8;;;;;;;15.87;77.34961;939.7316;;;;
2023/09/23 15:29:09;;;;;;;1;0.9;;;;;;;15.9;79.14551;939.7419;;;;
2023/09/23 15:31:36;;;;;;;1.4;0.7;;;;;;;15.9;77.74707;939.7644;;;;
2023/09/23 15:34:03;;;;;;;1.2;0.7;;;;;;;15.62;79.70898;939.7302;;;;